createdAt,value
2022-11-03T00:02:59.125Z,23.58
2022-11-03T00:08:28.749Z,37.95
2022-11-03T00:13:58.230Z,22.70
2022-11-03T00:19:24.177Z,24.50
2022-11-03T00:24:51.266Z,28.25
2022-11-03T00:30:20.465Z,22.15
2022-11-03T00:35:46.697Z,27.45
2022-11-03T00:41:11.046Z,23.77
2022-11-03T00:46:40.364Z,25.73
2022-11-03T00:52:05.587Z,27.50
2022-11-03T00:57:29.933Z,29.23
2022-11-03T01:02:54.665Z,25.20
2022-11-03T01:08:26.620Z,26.17
2022-11-03T01:13:56.718Z,32.47
2022-11-03T01:19:20.852Z,30.40
2022-11-03T01:24:46.029Z,30.63
2022-11-03T01:30:10.232Z,27.98
2022-11-03T01:35:35.232Z,35.63
2022-11-03T01:41:04.863Z,42.28
2022-11-03T01:46:30.363Z,49.92
2022-11-03T01:51:58.077Z,41.83
2022-11-03T01:57:28.381Z,31.98
2022-11-03T02:02:57.634Z,28.05
2022-11-03T02:08:30.135Z,26.33
2022-11-03T02:14:00.675Z,29.35
2022-11-03T02:19:36.861Z,28.23
2022-11-03T02:25:16.823Z,30.50
2022-11-03T02:30:46.419Z,29.27
2022-11-03T02:36:16.818Z,27.37
2022-11-03T02:41:43.011Z,29.58
2022-11-03T02:47:11.039Z,34.40
2022-11-03T02:52:38.948Z,35.05
2022-11-03T02:58:12.871Z,33.83
2022-11-03T03:03:43.386Z,30.05
2022-11-03T03:09:14.125Z,31.58
2022-11-03T03:14:41.854Z,32.70
2022-11-03T03:20:15.723Z,32.33
2022-11-03T03:25:44.471Z,37.83
2022-11-03T03:31:12.104Z,22.97
2022-11-03T03:36:42.050Z,24.27
2022-11-03T03:42:10.359Z,24.98
2022-11-03T03:47:37.008Z,28.98
2022-11-03T03:53:04.176Z,33.20
2022-11-03T03:58:29.300Z,30.67
2022-11-03T04:03:53.405Z,31.00
2022-11-03T04:09:18.925Z,35.25
2022-11-03T04:15:00.568Z,32.20
2022-11-03T04:20:45.324Z,43.67
2022-11-03T04:26:15.202Z,31.95
2022-11-03T04:37:02.940Z,36.60
2022-11-03T04:42:33.477Z,34.72
2022-11-03T04:48:00.844Z,41.97
2022-11-03T04:53:31.597Z,35.50
2022-11-03T04:58:59.508Z,39.53
2022-11-03T05:04:24.153Z,44.53
2022-11-03T05:09:48.402Z,37.55
2022-11-03T05:15:31.279Z,30.80
2022-11-03T05:21:03.907Z,31.17
2022-11-03T05:26:34.043Z,42.08
2022-11-03T05:32:01.093Z,42.58
2022-11-03T05:37:28.123Z,35.53
2022-11-03T05:42:54.814Z,40.70
2022-11-03T05:48:30.884Z,32.40
2022-11-03T05:53:59.045Z,43.97
2022-11-03T05:59:28.098Z,39.10
2022-11-03T06:04:53.617Z,23.27
2022-11-03T06:10:25.054Z,27.23
2022-11-03T06:15:52.108Z,50.60
2022-11-03T06:21:23.546Z,30.08
2022-11-03T06:26:50.926Z,32.58
2022-11-03T06:32:14.951Z,31.90
2022-11-03T06:37:40.352Z,44.10
2022-11-03T06:43:17.886Z,36.63
2022-11-03T06:48:42.589Z,33.42
2022-11-03T06:54:12.484Z,29.20
2022-11-03T06:59:41.708Z,41.30
2022-11-03T07:05:21.792Z,33.10
2022-11-03T07:10:59.244Z,31.20
2022-11-03T07:16:31.319Z,36.92
2022-11-03T07:22:02.157Z,39.53
2022-11-03T07:27:37.057Z,34.78
2022-11-03T07:33:15.492Z,29.17
2022-11-03T07:38:46.106Z,29.70
2022-11-03T07:44:21.132Z,43.00
2022-11-03T07:49:50.564Z,30.80
2022-11-03T07:55:19.832Z,39.93
2022-11-03T08:00:49.980Z,45.37
2022-11-03T08:06:20.108Z,41.55
2022-11-03T08:11:49.612Z,37.05
2022-11-03T08:17:20.000Z,42.92
2022-11-03T08:23:05.024Z,36.15
2022-11-03T08:28:38.699Z,45.42
2022-11-03T08:34:09.012Z,44.45
2022-11-03T08:39:38.258Z,47.10
2022-11-03T08:45:08.825Z,32.33
2022-11-03T08:50:40.644Z,29.30
2022-11-03T08:56:12.267Z,20.92
2022-11-03T09:01:42.519Z,25.48
2022-11-03T09:07:12.797Z,25.33
2022-11-03T09:12:41.577Z,20.20
2022-11-03T09:18:10.978Z,17.45
2022-11-03T09:23:41.987Z,20.75
2022-11-03T09:29:11.809Z,23.27
2022-11-03T09:34:40.379Z,14.57
2022-11-03T09:40:13.172Z,26.77
2022-11-03T09:45:42.181Z,17.13
2022-11-03T09:51:15.308Z,14.23
2022-11-03T09:56:47.229Z,25.25
2022-11-03T10:02:22.914Z,24.30
2022-11-03T10:13:30.401Z,20.60
2022-11-03T10:19:01.196Z,34.13
2022-11-03T10:24:30.094Z,33.13
2022-11-03T10:30:09.516Z,21.35
2022-11-03T10:35:38.239Z,21.52
2022-11-03T10:41:15.460Z,15.82
2022-11-03T10:46:57.900Z,25.60
2022-11-03T10:52:29.858Z,18.52
2022-11-03T10:57:59.873Z,20.65
2022-11-03T11:03:30.715Z,12.50
2022-11-03T14:40:30.827Z,17.30
2022-11-03T14:45:59.899Z,11.32
2022-11-03T14:51:28.796Z,17.87
2022-11-03T14:56:59.280Z,10.67
2022-11-03T15:02:31.579Z,13.30
2022-11-03T15:08:00.600Z,18.38
2022-11-03T15:13:31.290Z,12.60
2022-11-03T15:19:03.626Z,23.45
2022-11-03T15:30:22.987Z,10.77
2022-11-03T15:35:51.935Z,21.35
2022-11-03T15:41:22.091Z,14.70
2022-11-03T15:52:24.812Z,17.88
2022-11-03T15:57:53.862Z,21.90
2022-11-03T16:03:24.372Z,17.33
2022-11-03T16:08:53.526Z,19.45
2022-11-03T16:14:22.861Z,21.73
2022-11-03T16:19:53.102Z,19.02
2022-11-03T16:25:21.669Z,15.82
2022-11-03T16:30:54.232Z,25.45
2022-11-03T16:36:25.547Z,27.67
2022-11-03T16:41:55.809Z,24.75
2022-11-03T16:52:58.710Z,24.15
2022-11-03T16:58:30.169Z,17.02
2022-11-03T17:03:58.962Z,19.90
2022-11-03T17:09:30.672Z,18.38
2022-11-03T17:15:00.294Z,15.07
2022-11-03T17:20:29.635Z,33.60
2022-11-03T17:26:02.547Z,19.55
2022-11-03T17:31:33.511Z,21.30
2022-11-03T17:37:02.943Z,17.98
2022-11-03T17:42:33.792Z,18.23
2022-11-03T17:48:04.014Z,19.85
2022-11-03T17:53:35.078Z,16.35
2022-11-03T17:59:08.536Z,19.08
2022-11-03T18:04:37.792Z,22.83
2022-11-03T18:10:09.951Z,22.33
2022-11-03T18:15:44.075Z,18.48
2022-11-03T18:21:15.919Z,17.73
2022-11-03T18:26:45.176Z,16.23
2022-11-03T18:37:48.240Z,20.20
2022-11-03T18:43:21.011Z,12.98
2022-11-03T18:48:51.277Z,18.00
2022-11-03T18:54:23.322Z,15.38
2022-11-03T18:59:53.486Z,14.57
2022-11-03T19:05:24.553Z,9.63
2022-11-03T19:10:54.539Z,11.73
2022-11-03T19:16:26.959Z,12.20
2022-11-03T19:21:56.911Z,10.77
2022-11-03T19:27:28.793Z,14.75
2022-11-03T19:32:59.468Z,14.13
2022-11-03T19:38:29.759Z,14.80
2022-11-03T19:43:58.603Z,19.83
2022-11-03T19:49:27.703Z,12.93
2022-11-03T19:54:59.232Z,15.45
2022-11-03T20:00:23.404Z,14.15
2022-11-03T20:05:50.030Z,17.48
2022-11-03T20:11:23.527Z,22.77
2022-11-03T20:16:47.688Z,18.17
2022-11-03T20:22:17.030Z,18.38
2022-11-03T20:33:16.066Z,17.73
2022-11-03T20:38:39.703Z,17.55
2022-11-03T22:41:20.489Z,29.98
2022-11-03T22:46:50.528Z,27.17
2022-11-03T22:57:49.467Z,24.52
2022-11-03T23:03:18.402Z,26.08
2022-11-03T23:08:44.812Z,24.50
2022-11-03T23:14:14.541Z,28.40
2022-11-03T23:20:09.821Z,23.67
2022-11-03T23:25:40.309Z,21.10
2022-11-03T23:31:07.278Z,22.75
2022-11-03T23:36:36.394Z,13.60
2022-11-03T23:42:00.627Z,19.25
2022-11-03T23:47:44.531Z,17.67
2022-11-03T23:53:13.518Z,14.63
2022-11-03T23:58:40.501Z,13.82
